LOT391 LKPR-EDDF
Flight info
| Callsign | LOT391 |
|---|---|
| Flight time | 0h 45m |
| Altitude | 30000 |
| Route | BALTU DCT DONAD DCT RAPET T170 VAGAB/N0427F240 T170 GAPLA T178 KERAX KERAX5A |
| Aircraft | E195/M-SDE3GILORVW/S |
Departure
| Time | 2026-05-06 19:51 |
|---|---|
| Airport | Václav Havel Airport Prague (LKPR) |
Arrival
| Time | 2026-05-06 20:36 |
|---|---|
| Airport | Frankfurt Main Airport (EDDF) |
| Time | Latitude | Longitude | Altitude | Speed | Heading |
|---|---|---|---|---|---|
| 2026-05-06 19:29 | 50.10818 | 14.26519 | 1176 ft | 0 kts | 36° |
| 2026-05-06 19:38 | 50.10809 | 14.26508 | 1176 ft | 2 kts | 35° |
| 2026-05-06 19:39 | 50.10796 | 14.26494 | 1176 ft | 2 kts | 35° |
| 2026-05-06 19:39 | 50.10784 | 14.26481 | 1176 ft | 2 kts | 35° |
| 2026-05-06 19:39 | 50.10777 | 14.26472 | 1176 ft | 1 kts | 36° |
| 2026-05-06 19:39 | 50.10763 | 14.26465 | 1176 ft | 2 kts | 354° |
| 2026-05-06 19:40 | 50.10749 | 14.26472 | 1177 ft | 2 kts | 320° |
| 2026-05-06 19:40 | 50.10744 | 14.26482 | 1178 ft | 1 kts | 298° |
| 2026-05-06 19:40 | 50.10741 | 14.26488 | 1178 ft | 0 kts | 303° |
| 2026-05-06 19:42 | 50.10755 | 14.26457 | 1176 ft | 6 kts | 304° |
| 2026-05-06 19:42 | 50.10793 | 14.26369 | 1171 ft | 12 kts | 304° |
| 2026-05-06 19:42 | 50.10830 | 14.26261 | 1167 ft | 13 kts | 297° |
| 2026-05-06 19:43 | 50.10887 | 14.26129 | 1164 ft | 13 kts | 305° |
| 2026-05-06 19:43 | 50.10945 | 14.26002 | 1163 ft | 10 kts | 304° |
| 2026-05-06 19:43 | 50.10949 | 14.25899 | 1161 ft | 10 kts | 223° |
| 2026-05-06 19:43 | 50.10890 | 14.25831 | 1163 ft | 9 kts | 215° |
| 2026-05-06 19:44 | 50.10839 | 14.25776 | 1165 ft | 8 kts | 214° |
| 2026-05-06 19:44 | 50.10795 | 14.25728 | 1167 ft | 7 kts | 214° |
| 2026-05-06 19:44 | 50.10755 | 14.25686 | 1168 ft | 6 kts | 214° |
| 2026-05-06 19:44 | 50.10720 | 14.25649 | 1170 ft | 5 kts | 214° |
| 2026-05-06 19:45 | 50.10684 | 14.25610 | 1171 ft | 7 kts | 214° |
| 2026-05-06 19:45 | 50.10636 | 14.25556 | 1172 ft | 8 kts | 219° |
| 2026-05-06 19:45 | 50.10603 | 14.25478 | 1173 ft | 8 kts | 251° |
| 2026-05-06 19:45 | 50.10589 | 14.25382 | 1173 ft | 9 kts | 258° |
| 2026-05-06 19:46 | 50.10577 | 14.25288 | 1173 ft | 2 kts | 259° |
| 2026-05-06 19:46 | 50.10577 | 14.25286 | 1173 ft | 0 kts | 259° |
| 2026-05-06 19:48 | 50.10575 | 14.25275 | 1172 ft | 3 kts | 259° |
| 2026-05-06 19:49 | 50.10569 | 14.25226 | 1172 ft | 5 kts | 256° |
| 2026-05-06 19:49 | 50.10544 | 14.25177 | 1173 ft | 5 kts | 205° |
| 2026-05-06 19:49 | 50.10508 | 14.25174 | 1175 ft | 5 kts | 164° |
| 2026-05-06 19:49 | 50.10459 | 14.25245 | 1177 ft | 14 kts | 126° |
| 2026-05-06 19:50 | 50.10267 | 14.25642 | 1184 ft | 79 kts | 127° |
| 2026-05-06 19:50 | 50.09815 | 14.26578 | 1209 ft | 135 kts | 126° |
| 2026-05-06 19:50 | 50.09154 | 14.27945 | 1301 ft | 171 kts | 124° |
| 2026-05-06 19:50 | 50.08406 | 14.29501 | 1696 ft | 189 kts | 126° |
| 2026-05-06 19:51 | 50.07667 | 14.31167 | 2475 ft | 185 kts | 122° |
| 2026-05-06 19:51 | 50.06900 | 14.32849 | 3016 ft | 204 kts | 123° |
| 2026-05-06 19:51 | 50.06019 | 14.34712 | 3498 ft | 228 kts | 124° |
| 2026-05-06 19:51 | 50.05037 | 14.36734 | 4320 ft | 237 kts | 125° |
| 2026-05-06 19:52 | 50.04012 | 14.38821 | 4875 ft | 258 kts | 126° |
| 2026-05-06 19:52 | 50.02878 | 14.41109 | 5519 ft | 275 kts | 126° |
| 2026-05-06 19:52 | 50.01696 | 14.43481 | 6326 ft | 284 kts | 127° |
| 2026-05-06 19:52 | 50.00512 | 14.45965 | 7249 ft | 287 kts | 117° |
| 2026-05-06 19:53 | 50.00063 | 14.48939 | 8126 ft | 291 kts | 85° |
| 2026-05-06 19:53 | 50.00696 | 14.51834 | 8937 ft | 295 kts | 53° |
| 2026-05-06 19:53 | 50.02209 | 14.53970 | 9724 ft | 300 kts | 34° |
| 2026-05-06 19:53 | 50.03918 | 14.55873 | 10527 ft | 305 kts | 35° |
| 2026-05-06 19:54 | 50.05641 | 14.57831 | 11197 ft | 314 kts | 36° |
| 2026-05-06 19:54 | 50.07432 | 14.59887 | 11766 ft | 326 kts | 36° |
| 2026-05-06 19:54 | 50.09271 | 14.61977 | 12370 ft | 336 kts | 32° |
| 2026-05-06 19:54 | 50.11478 | 14.63171 | 12997 ft | 343 kts | 3° |
| 2026-05-06 19:55 | 50.13800 | 14.62629 | 13716 ft | 344 kts | 334° |
| 2026-05-06 19:55 | 50.15719 | 14.60451 | 14484 ft | 341 kts | 306° |
| 2026-05-06 19:55 | 50.16756 | 14.57217 | 15246 ft | 336 kts | 279° |
| 2026-05-06 19:55 | 50.16882 | 14.53672 | 15732 ft | 333 kts | 266° |
| 2026-05-06 19:56 | 50.16878 | 14.50064 | 15754 ft | 335 kts | 268° |
| 2026-05-06 19:56 | 50.16919 | 14.46407 | 15764 ft | 337 kts | 268° |
| 2026-05-06 19:56 | 50.16977 | 14.42790 | 15763 ft | 338 kts | 269° |
| 2026-05-06 19:56 | 50.17041 | 14.39120 | 15766 ft | 337 kts | 269° |
| 2026-05-06 19:57 | 50.17106 | 14.35503 | 15764 ft | 338 kts | 269° |
| 2026-05-06 19:57 | 50.17172 | 14.31843 | 15763 ft | 338 kts | 269° |
| 2026-05-06 19:57 | 50.17236 | 14.28204 | 15761 ft | 339 kts | 269° |
| 2026-05-06 19:57 | 50.17300 | 14.24552 | 15760 ft | 338 kts | 269° |
| 2026-05-06 19:58 | 50.17364 | 14.20831 | 15787 ft | 348 kts | 269° |
| 2026-05-06 19:58 | 50.17428 | 14.17030 | 16373 ft | 357 kts | 269° |
| 2026-05-06 19:58 | 50.17492 | 14.13216 | 17273 ft | 348 kts | 269° |
| 2026-05-06 19:58 | 50.17553 | 14.09454 | 17790 ft | 349 kts | 268° |
| 2026-05-06 19:59 | 50.17613 | 14.05664 | 18080 ft | 353 kts | 269° |
| 2026-05-06 19:59 | 50.17673 | 14.01854 | 18324 ft | 352 kts | 269° |
| 2026-05-06 19:59 | 50.17731 | 13.98031 | 18596 ft | 353 kts | 268° |
| 2026-05-06 19:59 | 50.17788 | 13.94228 | 18858 ft | 353 kts | 268° |
| 2026-05-06 20:00 | 50.17844 | 13.90393 | 19120 ft | 352 kts | 268° |
| 2026-05-06 20:00 | 50.17898 | 13.86584 | 19375 ft | 353 kts | 268° |
| 2026-05-06 20:00 | 50.17951 | 13.82773 | 19631 ft | 354 kts | 268° |
| 2026-05-06 20:00 | 50.18002 | 13.78960 | 19883 ft | 354 kts | 268° |
| 2026-05-06 20:01 | 50.18053 | 13.75141 | 20142 ft | 355 kts | 268° |
| 2026-05-06 20:01 | 50.18103 | 13.71296 | 20403 ft | 356 kts | 268° |
| 2026-05-06 20:01 | 50.18152 | 13.67419 | 20663 ft | 358 kts | 268° |
| 2026-05-06 20:01 | 50.18200 | 13.63557 | 20921 ft | 359 kts | 268° |
| 2026-05-06 20:02 | 50.18246 | 13.59701 | 21177 ft | 358 kts | 268° |
| 2026-05-06 20:02 | 50.18291 | 13.55811 | 21435 ft | 359 kts | 268° |
| 2026-05-06 20:02 | 50.18335 | 13.51925 | 21694 ft | 361 kts | 268° |
| 2026-05-06 20:02 | 50.18378 | 13.48025 | 21956 ft | 361 kts | 267° |
| 2026-05-06 20:03 | 50.18418 | 13.44113 | 22216 ft | 364 kts | 268° |
| 2026-05-06 20:03 | 50.18460 | 13.40161 | 22475 ft | 364 kts | 268° |
| 2026-05-06 20:03 | 50.18499 | 13.36194 | 22744 ft | 366 kts | 267° |
| 2026-05-06 20:03 | 50.18537 | 13.32277 | 23013 ft | 365 kts | 266° |
| 2026-05-06 20:04 | 50.18573 | 13.28332 | 23275 ft | 368 kts | 266° |
| 2026-05-06 20:04 | 50.18609 | 13.24299 | 23553 ft | 368 kts | 266° |
| 2026-05-06 20:04 | 50.18643 | 13.20320 | 23823 ft | 370 kts | 266° |
| 2026-05-06 20:04 | 50.18676 | 13.16308 | 24094 ft | 373 kts | 266° |
| 2026-05-06 20:05 | 50.18708 | 13.12289 | 24373 ft | 374 kts | 266° |
| 2026-05-06 20:05 | 50.18739 | 13.08262 | 24649 ft | 375 kts | 266° |
| 2026-05-06 20:05 | 50.18767 | 13.04188 | 24925 ft | 378 kts | 266° |
| 2026-05-06 20:05 | 50.18796 | 13.00078 | 25212 ft | 380 kts | 266° |
| 2026-05-06 20:06 | 50.18823 | 12.95995 | 25483 ft | 380 kts | 266° |
| 2026-05-06 20:06 | 50.18848 | 12.91824 | 25765 ft | 383 kts | 266° |
| 2026-05-06 20:06 | 50.18872 | 12.87688 | 26035 ft | 386 kts | 265° |
| 2026-05-06 20:06 | 50.18894 | 12.83541 | 26305 ft | 388 kts | 265° |
| 2026-05-06 20:07 | 50.18916 | 12.79293 | 26578 ft | 389 kts | 265° |
| 2026-05-06 20:07 | 50.18935 | 12.75097 | 26851 ft | 389 kts | 265° |
| 2026-05-06 20:07 | 50.18954 | 12.70914 | 27122 ft | 392 kts | 265° |
| 2026-05-06 20:07 | 50.18970 | 12.66651 | 27396 ft | 395 kts | 265° |
| 2026-05-06 20:08 | 50.18986 | 12.62357 | 27678 ft | 396 kts | 265° |
| 2026-05-06 20:08 | 50.19000 | 12.58094 | 28087 ft | 402 kts | 265° |
| 2026-05-06 20:08 | 50.19012 | 12.53723 | 28631 ft | 405 kts | 265° |
| 2026-05-06 20:08 | 50.19024 | 12.49339 | 29189 ft | 407 kts | 265° |
| 2026-05-06 20:09 | 50.19033 | 12.44934 | 29710 ft | 407 kts | 264° |
| 2026-05-06 20:09 | 50.19039 | 12.40437 | 29771 ft | 420 kts | 264° |
| 2026-05-06 20:09 | 50.19094 | 12.35866 | 29791 ft | 437 kts | 269° |
| 2026-05-06 20:09 | 50.19592 | 12.31069 | 29799 ft | 458 kts | 278° |
| 2026-05-06 20:10 | 50.20613 | 12.26286 | 29797 ft | 477 kts | 287° |
| 2026-05-06 20:10 | 50.21850 | 12.21494 | 29790 ft | 482 kts | 285° |
| 2026-05-06 20:10 | 50.24149 | 12.11691 | 29783 ft | 480 kts | 284° |
| 2026-05-06 20:11 | 50.26391 | 12.01883 | 29800 ft | 480 kts | 284° |
| 2026-05-06 20:11 | 50.28627 | 11.92155 | 29808 ft | 478 kts | 284° |
| 2026-05-06 20:12 | 50.30861 | 11.82390 | 29813 ft | 478 kts | 284° |
| 2026-05-06 20:12 | 50.33103 | 11.72544 | 29807 ft | 481 kts | 284° |
| 2026-05-06 20:13 | 50.35323 | 11.62755 | 29808 ft | 480 kts | 284° |
| 2026-05-06 20:13 | 50.37530 | 11.52970 | 29804 ft | 479 kts | 284° |
| 2026-05-06 20:14 | 50.39752 | 11.43080 | 29802 ft | 480 kts | 285° |
| 2026-05-06 20:14 | 50.41939 | 11.33295 | 29803 ft | 479 kts | 284° |
| 2026-05-06 20:15 | 50.44120 | 11.23479 | 29795 ft | 479 kts | 284° |
| 2026-05-06 20:15 | 50.46304 | 11.13598 | 29793 ft | 480 kts | 284° |
| 2026-05-06 20:16 | 50.48473 | 11.03739 | 29799 ft | 480 kts | 284° |
| 2026-05-06 20:16 | 50.50634 | 10.93871 | 29794 ft | 480 kts | 284° |
| 2026-05-06 20:17 | 50.52792 | 10.83971 | 29791 ft | 480 kts | 284° |
| 2026-05-06 20:17 | 50.55022 | 10.74061 | 29788 ft | 481 kts | 285° |
| 2026-05-06 20:18 | 50.57253 | 10.64214 | 29792 ft | 481 kts | 285° |
| 2026-05-06 20:18 | 50.59491 | 10.54309 | 29798 ft | 483 kts | 285° |
| 2026-05-06 20:19 | 50.61721 | 10.44426 | 29798 ft | 482 kts | 285° |
| 2026-05-06 20:19 | 50.63347 | 10.34299 | 29807 ft | 473 kts | 270° |
| 2026-05-06 20:20 | 50.63065 | 10.24185 | 29813 ft | 465 kts | 259° |
| 2026-05-06 20:20 | 50.61372 | 10.14534 | 29816 ft | 453 kts | 240° |
| 2026-05-06 20:21 | 50.58044 | 10.06327 | 29808 ft | 449 kts | 233° |
| 2026-05-06 20:21 | 50.54957 | 9.97956 | 29787 ft | 424 kts | 237° |
| 2026-05-06 20:22 | 50.53816 | 9.93812 | 29794 ft | 410 kts | 247° |
| 2026-05-06 20:22 | 50.53023 | 9.89521 | 29726 ft | 413 kts | 249° |
| 2026-05-06 20:22 | 50.52237 | 9.85161 | 29300 ft | 417 kts | 250° |
| 2026-05-06 20:22 | 50.51449 | 9.80792 | 28826 ft | 415 kts | 250° |
| 2026-05-06 20:23 | 50.50673 | 9.76498 | 28386 ft | 412 kts | 250° |
| 2026-05-06 20:23 | 50.49902 | 9.72171 | 27928 ft | 408 kts | 252° |
| 2026-05-06 20:23 | 50.49172 | 9.67903 | 27486 ft | 404 kts | 252° |
| 2026-05-06 20:23 | 50.48448 | 9.63697 | 27043 ft | 401 kts | 252° |
| 2026-05-06 20:24 | 50.47722 | 9.59492 | 26608 ft | 399 kts | 252° |
| 2026-05-06 20:24 | 50.46961 | 9.55341 | 26215 ft | 397 kts | 251° |
| 2026-05-06 20:24 | 50.46184 | 9.51213 | 25584 ft | 396 kts | 251° |
| 2026-05-06 20:24 | 50.45412 | 9.47121 | 24965 ft | 392 kts | 252° |
| 2026-05-06 20:25 | 50.44637 | 9.43025 | 24346 ft | 388 kts | 252° |
| 2026-05-06 20:25 | 50.43877 | 9.39011 | 23733 ft | 382 kts | 252° |
| 2026-05-06 20:25 | 50.43134 | 9.35101 | 23132 ft | 378 kts | 252° |
| 2026-05-06 20:25 | 50.42381 | 9.31142 | 22527 ft | 374 kts | 252° |
| 2026-05-06 20:26 | 50.41645 | 9.27283 | 21934 ft | 372 kts | 252° |
| 2026-05-06 20:26 | 50.40847 | 9.23435 | 21326 ft | 370 kts | 245° |
| 2026-05-06 20:26 | 50.39443 | 9.20149 | 20759 ft | 366 kts | 230° |
| 2026-05-06 20:26 | 50.38199 | 9.16731 | 20192 ft | 366 kts | 251° |
| 2026-05-06 20:27 | 50.37298 | 9.13051 | 19637 ft | 363 kts | 237° |
| 2026-05-06 20:27 | 50.35571 | 9.10293 | 19097 ft | 361 kts | 212° |
| 2026-05-06 20:27 | 50.33220 | 9.08976 | 18554 ft | 362 kts | 186° |
| 2026-05-06 20:27 | 50.30733 | 9.09398 | 17997 ft | 358 kts | 160° |
| 2026-05-06 20:28 | 50.28530 | 9.11013 | 17433 ft | 346 kts | 153° |
| 2026-05-06 20:28 | 50.26441 | 9.12716 | 16854 ft | 337 kts | 153° |
| 2026-05-06 20:28 | 50.24389 | 9.14393 | 16241 ft | 327 kts | 153° |
| 2026-05-06 20:28 | 50.22395 | 9.15995 | 15043 ft | 332 kts | 158° |
| 2026-05-06 20:29 | 50.20182 | 9.16625 | 13820 ft | 331 kts | 186° |
| 2026-05-06 20:29 | 50.18057 | 9.15553 | 12643 ft | 328 kts | 214° |
| 2026-05-06 20:29 | 50.16510 | 9.13032 | 11448 ft | 325 kts | 242° |
| 2026-05-06 20:29 | 50.15801 | 9.09774 | 10246 ft | 323 kts | 255° |
| 2026-05-06 20:30 | 50.15182 | 9.06480 | 8994 ft | 321 kts | 252° |
| 2026-05-06 20:30 | 50.13773 | 9.00007 | 6444 ft | 316 kts | 251° |
| 2026-05-06 20:30 | 50.13059 | 8.96905 | 5789 ft | 294 kts | 251° |
| 2026-05-06 20:31 | 50.12394 | 8.94048 | 5337 ft | 272 kts | 251° |
| 2026-05-06 20:31 | 50.11769 | 8.91382 | 4929 ft | 254 kts | 251° |
| 2026-05-06 20:31 | 50.11182 | 8.88884 | 4556 ft | 239 kts | 251° |
| 2026-05-06 20:31 | 50.10619 | 8.86507 | 4216 ft | 226 kts | 252° |
| 2026-05-06 20:32 | 50.10098 | 8.84290 | 3971 ft | 209 kts | 252° |
| 2026-05-06 20:32 | 50.09613 | 8.82233 | 3704 ft | 201 kts | 252° |
| 2026-05-06 20:32 | 50.09133 | 8.80201 | 3389 ft | 197 kts | 252° |
| 2026-05-06 20:32 | 50.08676 | 8.78282 | 3086 ft | 184 kts | 252° |
| 2026-05-06 20:33 | 50.08252 | 8.76485 | 2812 ft | 172 kts | 253° |
| 2026-05-06 20:33 | 50.07857 | 8.74828 | 2620 ft | 153 kts | 253° |
| 2026-05-06 20:33 | 50.07510 | 8.73332 | 2339 ft | 142 kts | 256° |
| 2026-05-06 20:33 | 50.07282 | 8.71866 | 2066 ft | 140 kts | 262° |
| 2026-05-06 20:34 | 50.07086 | 8.70382 | 1856 ft | 137 kts | 261° |
| 2026-05-06 20:34 | 50.06890 | 8.68953 | 1666 ft | 136 kts | 259° |
| 2026-05-06 20:34 | 50.06606 | 8.67553 | 1456 ft | 138 kts | 253° |
| 2026-05-06 20:34 | 50.06256 | 8.66155 | 1277 ft | 138 kts | 252° |
| 2026-05-06 20:35 | 50.05926 | 8.64775 | 1136 ft | 136 kts | 255° |
| 2026-05-06 20:35 | 50.05622 | 8.63395 | 1012 ft | 132 kts | 252° |
| 2026-05-06 20:35 | 50.05307 | 8.62053 | 882 ft | 132 kts | 252° |
| 2026-05-06 20:35 | 50.04985 | 8.60687 | 702 ft | 136 kts | 252° |
| 2026-05-06 20:36 | 50.04653 | 8.59299 | 510 ft | 139 kts | 252° |
| 2026-05-06 20:36 | 50.04323 | 8.57911 | 366 ft | 131 kts | 251° |
| 2026-05-06 20:36 | 50.04063 | 8.56812 | 353 ft | 84 kts | 250° |
| 2026-05-06 20:36 | 50.03917 | 8.56200 | 345 ft | 33 kts | 250° |
| 2026-05-06 20:37 | 50.03879 | 8.55920 | 342 ft | 26 kts | 278° |
| 2026-05-06 20:37 | 50.03904 | 8.55695 | 344 ft | 17 kts | 282° |
| 2026-05-06 20:37 | 50.03964 | 8.55640 | 346 ft | 10 kts | 31° |
| 2026-05-06 20:37 | 50.03997 | 8.55736 | 346 ft | 11 kts | 69° |
| 2026-05-06 20:38 | 50.04030 | 8.55870 | 346 ft | 14 kts | 70° |
| 2026-05-06 20:38 | 50.04065 | 8.56016 | 349 ft | 15 kts | 69° |
| 2026-05-06 20:38 | 50.04104 | 8.56180 | 351 ft | 16 kts | 70° |
| 2026-05-06 20:38 | 50.04147 | 8.56360 | 353 ft | 18 kts | 70° |
| 2026-05-06 20:39 | 50.04194 | 8.56559 | 355 ft | 20 kts | 70° |
| 2026-05-06 20:39 | 50.04246 | 8.56775 | 359 ft | 21 kts | 70° |
| 2026-05-06 20:39 | 50.04298 | 8.56995 | 363 ft | 22 kts | 70° |
| 2026-05-06 20:39 | 50.04356 | 8.57237 | 364 ft | 25 kts | 70° |
| 2026-05-06 20:40 | 50.04420 | 8.57505 | 362 ft | 28 kts | 70° |
| 2026-05-06 20:40 | 50.04493 | 8.57809 | 367 ft | 29 kts | 70° |
| 2026-05-06 20:40 | 50.04600 | 8.58023 | 370 ft | 25 kts | 341° |
| 2026-05-06 20:40 | 50.04769 | 8.57924 | 371 ft | 27 kts | 340° |
| 2026-05-06 20:41 | 50.04881 | 8.57715 | 371 ft | 19 kts | 294° |
| 2026-05-06 20:41 | 50.04951 | 8.57668 | 373 ft | 9 kts | 19° |
| 2026-05-06 20:41 | 50.04969 | 8.57680 | 373 ft | 0 kts | 23° |